LTBA/IST METAR and TAF weather

Enter ICAO airport designator
Station Type Date Time Source
LTBA METAR 2019/06/20 06:50 UTC NOAA

LTBA 200650Z 04007KT 360V070 9999 FEW026 SCT160 26/19 Q1011 NOSIG


Station Type Date Time Source
LTBA Decoded METAR 2019/06/20 06:50 UTC NOAA

Istanbul / Ataturk, Turkey (LTBA) 40-58N 028-49E 37M
Jun 20, 2019 - 02:50 AM EDT / 2019.06.20 0650 UTC
Wind: from the NE (040 degrees) at 8 MPH (7 KT) (direction variable):0
Visibility: greater than 7 mile(s):0
Sky conditions: partly cloudy
Temperature: 78 F (26 C)
Dew Point: 66 F (19 C)
Relative Humidity: 65%
Pressure (altimeter): 29.85 in. Hg (1011 hPa)
ob: LTBA 200650Z 04007KT 360V070 9999 FEW026 SCT160 26/19 Q1011 NOSIG
cycle: 7

Station Type Date Time Source
LTBA TAF 2019/06/20 06:03 UTC NOAA

TAF LTBA 200440Z 2006/2112 01009KT CAVOK
BECMG 2015/2019 SCT032 BKN080 PROB30 2022/2102 3200 BR BKN012 PROB40
TEMPO 2104/2107 -SHRA BKN027

Example: see airport list